Olm, Luxembourg
Current Conditions -  °F | °C
As of 11:20 PM on Monday 24 Nov 2014 (Local Time) from ELLX Reporting Station
Broken Clouds Broken Clouds  
Wind Chill: 36°   Ceiling: 2800
Heat Index: 43°   Visibility: 6mi
Dew Point: 37°   Wind: 13mph
Humidity: 81%   Direction: 40°NE
Pressure: 30.27"   Gusts: NA
Location:  49.66°N, 6°E
Report Text: ELLX 242220Z 04011KT 9999 FEW017 BKN028 06/03 Q1025 NOSIG
Loading
Personal Weather Stations






























Interactive Weather Map New forecast layout! Learn more

10-Day Weather Forecast

Advertisements
Track Severe Weather on mobile